sensor_id;sensor_type;location;lat;lon;timestamp;P1;durP1;ratioP1;P2;durP2;ratioP2
54307;SDS011;40208;39.778;2.710;2023-07-20T00:00:10;22.67;;;8.65;;
54307;SDS011;40208;39.778;2.710;2023-07-20T00:03:19;20.02;;;8.05;;
54307;SDS011;40208;39.778;2.710;2023-07-20T00:06:03;26.40;;;8.43;;
54307;SDS011;40208;39.778;2.710;2023-07-20T00:08:48;20.75;;;8.70;;
54307;SDS011;40208;39.778;2.710;2023-07-20T00:11:37;26.80;;;8.80;;
54307;SDS011;40208;39.778;2.710;2023-07-20T00:17:07;20.67;;;9.02;;
54307;SDS011;40208;39.778;2.710;2023-07-20T00:19:52;24.13;;;9.48;;
54307;SDS011;40208;39.778;2.710;2023-07-20T00:22:37;20.00;;;8.48;;
54307;SDS011;40208;39.778;2.710;2023-07-20T00:25:22;23.35;;;8.27;;
54307;SDS011;40208;39.778;2.710;2023-07-20T00:28:06;20.65;;;8.30;;
54307;SDS011;40208;39.778;2.710;2023-07-20T00:30:51;26.20;;;8.77;;
54307;SDS011;40208;39.778;2.710;2023-07-20T00:33:36;19.98;;;8.65;;
54307;SDS011;40208;39.778;2.710;2023-07-20T00:36:20;19.90;;;8.60;;
54307;SDS011;40208;39.778;2.710;2023-07-20T00:39:05;24.60;;;9.98;;
54307;SDS011;40208;39.778;2.710;2023-07-20T00:41:50;17.33;;;8.15;;
54307;SDS011;40208;39.778;2.710;2023-07-20T00:44:35;23.00;;;8.05;;
54307;SDS011;40208;39.778;2.710;2023-07-20T00:47:20;16.90;;;8.50;;
54307;SDS011;40208;39.778;2.710;2023-07-20T00:50:05;24.20;;;9.40;;
54307;SDS011;40208;39.778;2.710;2023-07-20T00:52:50;19.48;;;8.27;;
54307;SDS011;40208;39.778;2.710;2023-07-20T00:55:35;18.13;;;8.27;;
54307;SDS011;40208;39.778;2.710;2023-07-20T00:58:20;25.30;;;8.35;;
54307;SDS011;40208;39.778;2.710;2023-07-20T01:01:04;21.13;;;8.43;;
54307;SDS011;40208;39.778;2.710;2023-07-20T01:03:49;22.02;;;9.18;;
54307;SDS011;40208;39.778;2.710;2023-07-20T01:09:48;21.90;;;9.00;;
54307;SDS011;40208;39.778;2.710;2023-07-20T01:12:46;26.47;;;9.20;;
54307;SDS011;40208;39.778;2.710;2023-07-20T01:15:35;17.00;;;7.80;;
54307;SDS011;40208;39.778;2.710;2023-07-20T01:18:20;18.27;;;8.93;;
54307;SDS011;40208;39.778;2.710;2023-07-20T01:21:08;21.30;;;7.90;;
54307;SDS011;40208;39.778;2.710;2023-07-20T01:26:59;26.02;;;8.57;;
54307;SDS011;40208;39.778;2.710;2023-07-20T01:33:17;16.48;;;8.10;;
54307;SDS011;40208;39.778;2.710;2023-07-20T01:36:03;18.50;;;8.63;;
54307;SDS011;40208;39.778;2.710;2023-07-20T01:38:49;19.58;;;9.13;;
54307;SDS011;40208;39.778;2.710;2023-07-20T01:41:35;19.08;;;9.13;;
54307;SDS011;40208;39.778;2.710;2023-07-20T01:44:20;26.38;;;10.13;;
54307;SDS011;40208;39.778;2.710;2023-07-20T01:47:04;22.80;;;8.60;;
54307;SDS011;40208;39.778;2.710;2023-07-20T01:49:49;23.70;;;9.43;;
54307;SDS011;40208;39.778;2.710;2023-07-20T01:52:34;21.75;;;9.10;;
54307;SDS011;40208;39.778;2.710;2023-07-20T01:55:19;21.30;;;9.05;;
54307;SDS011;40208;39.778;2.710;2023-07-20T01:58:04;19.08;;;9.73;;
54307;SDS011;40208;39.778;2.710;2023-07-20T02:00:50;16.25;;;8.45;;
54307;SDS011;40208;39.778;2.710;2023-07-20T02:03:35;16.75;;;9.52;;
54307;SDS011;40208;39.778;2.710;2023-07-20T02:06:20;27.35;;;10.88;;
54307;SDS011;40208;39.778;2.710;2023-07-20T02:09:05;29.20;;;9.88;;
54307;SDS011;40208;39.778;2.710;2023-07-20T02:11:49;18.98;;;8.93;;
54307;SDS011;40208;39.778;2.710;2023-07-20T02:14:34;17.90;;;9.13;;
54307;SDS011;40208;39.778;2.710;2023-07-20T02:17:19;22.45;;;8.80;;
54307;SDS011;40208;39.778;2.710;2023-07-20T02:20:04;20.38;;;9.35;;
54307;SDS011;40208;39.778;2.710;2023-07-20T02:22:49;17.90;;;7.75;;
54307;SDS011;40208;39.778;2.710;2023-07-20T02:25:34;19.17;;;8.68;;
54307;SDS011;40208;39.778;2.710;2023-07-20T02:28:19;21.58;;;9.30;;
54307;SDS011;40208;39.778;2.710;2023-07-20T02:31:04;19.08;;;9.07;;
54307;SDS011;40208;39.778;2.710;2023-07-20T02:33:49;18.92;;;9.65;;
54307;SDS011;40208;39.778;2.710;2023-07-20T02:36:34;17.70;;;9.05;;
54307;SDS011;40208;39.778;2.710;2023-07-20T02:39:19;22.80;;;9.13;;
54307;SDS011;40208;39.778;2.710;2023-07-20T02:42:04;18.95;;;9.00;;
54307;SDS011;40208;39.778;2.710;2023-07-20T02:44:50;22.88;;;10.27;;
54307;SDS011;40208;39.778;2.710;2023-07-20T02:47:34;22.42;;;9.77;;
54307;SDS011;40208;39.778;2.710;2023-07-20T02:50:19;23.85;;;8.90;;
54307;SDS011;40208;39.778;2.710;2023-07-20T02:53:04;24.77;;;9.65;;
54307;SDS011;40208;39.778;2.710;2023-07-20T02:55:49;17.95;;;9.57;;
54307;SDS011;40208;39.778;2.710;2023-07-20T02:58:34;26.63;;;10.48;;
54307;SDS011;40208;39.778;2.710;2023-07-20T03:01:23;19.58;;;10.00;;
54307;SDS011;40208;39.778;2.710;2023-07-20T03:04:08;18.13;;;9.38;;
54307;SDS011;40208;39.778;2.710;2023-07-20T03:06:54;19.58;;;8.98;;
54307;SDS011;40208;39.778;2.710;2023-07-20T03:09:39;19.02;;;8.95;;
54307;SDS011;40208;39.778;2.710;2023-07-20T03:12:25;16.10;;;9.27;;
54307;SDS011;40208;39.778;2.710;2023-07-20T03:15:10;26.70;;;9.88;;
54307;SDS011;40208;39.778;2.710;2023-07-20T03:17:54;23.88;;;9.07;;
54307;SDS011;40208;39.778;2.710;2023-07-20T03:20:39;24.13;;;9.60;;
54307;SDS011;40208;39.778;2.710;2023-07-20T03:23:24;17.17;;;8.52;;
54307;SDS011;40208;39.778;2.710;2023-07-20T03:26:10;24.42;;;9.32;;
54307;SDS011;40208;39.778;2.710;2023-07-20T03:28:55;23.92;;;9.15;;
54307;SDS011;40208;39.778;2.710;2023-07-20T03:31:40;19.70;;;8.60;;
54307;SDS011;40208;39.778;2.710;2023-07-20T03:34:24;20.52;;;8.82;;
54307;SDS011;40208;39.778;2.710;2023-07-20T03:37:09;23.48;;;9.93;;
54307;SDS011;40208;39.778;2.710;2023-07-20T03:39:54;19.95;;;8.70;;
54307;SDS011;40208;39.778;2.710;2023-07-20T03:42:39;22.65;;;10.02;;
54307;SDS011;40208;39.778;2.710;2023-07-20T03:45:23;19.13;;;8.82;;
54307;SDS011;40208;39.778;2.710;2023-07-20T03:48:08;20.80;;;9.18;;
54307;SDS011;40208;39.778;2.710;2023-07-20T03:50:53;24.40;;;9.57;;
54307;SDS011;40208;39.778;2.710;2023-07-20T03:53:38;24.83;;;10.30;;
54307;SDS011;40208;39.778;2.710;2023-07-20T03:56:23;18.73;;;8.82;;
54307;SDS011;40208;39.778;2.710;2023-07-20T03:59:08;15.65;;;9.35;;
54307;SDS011;40208;39.778;2.710;2023-07-20T04:01:53;19.80;;;9.20;;
54307;SDS011;40208;39.778;2.710;2023-07-20T04:04:38;25.65;;;10.27;;
54307;SDS011;40208;39.778;2.710;2023-07-20T04:07:23;25.92;;;9.73;;
54307;SDS011;40208;39.778;2.710;2023-07-20T04:10:07;20.02;;;9.13;;
54307;SDS011;40208;39.778;2.710;2023-07-20T04:12:53;20.58;;;9.02;;
54307;SDS011;40208;39.778;2.710;2023-07-20T04:15:37;21.63;;;9.32;;
54307;SDS011;40208;39.778;2.710;2023-07-20T04:18:22;23.65;;;9.25;;
54307;SDS011;40208;39.778;2.710;2023-07-20T04:21:07;19.33;;;9.15;;
54307;SDS011;40208;39.778;2.710;2023-07-20T04:23:53;21.08;;;9.77;;
54307;SDS011;40208;39.778;2.710;2023-07-20T04:26:37;18.77;;;8.75;;
54307;SDS011;40208;39.778;2.710;2023-07-20T04:29:22;22.00;;;10.18;;
54307;SDS011;40208;39.778;2.710;2023-07-20T04:32:07;22.63;;;10.38;;
54307;SDS011;40208;39.778;2.710;2023-07-20T04:34:52;23.65;;;10.18;;
54307;SDS011;40208;39.778;2.710;2023-07-20T04:37:37;21.73;;;9.18;;
54307;SDS011;40208;39.778;2.710;2023-07-20T04:40:22;18.20;;;9.30;;
54307;SDS011;40208;39.778;2.710;2023-07-20T04:43:07;28.52;;;10.02;;
54307;SDS011;40208;39.778;2.710;2023-07-20T04:45:52;26.67;;;11.10;;
54307;SDS011;40208;39.778;2.710;2023-07-20T04:48:37;20.00;;;9.20;;
54307;SDS011;40208;39.778;2.710;2023-07-20T04:51:22;22.42;;;9.60;;
54307;SDS011;40208;39.778;2.710;2023-07-20T04:54:07;20.02;;;9.98;;
54307;SDS011;40208;39.778;2.710;2023-07-20T04:56:53;24.98;;;9.27;;
54307;SDS011;40208;39.778;2.710;2023-07-20T04:59:38;26.38;;;10.30;;
54307;SDS011;40208;39.778;2.710;2023-07-20T05:02:23;21.33;;;9.45;;
54307;SDS011;40208;39.778;2.710;2023-07-20T05:05:08;25.08;;;10.52;;
54307;SDS011;40208;39.778;2.710;2023-07-20T05:07:53;20.70;;;9.25;;
54307;SDS011;40208;39.778;2.710;2023-07-20T05:10:38;20.98;;;10.27;;
54307;SDS011;40208;39.778;2.710;2023-07-20T05:13:23;20.13;;;9.38;;
54307;SDS011;40208;39.778;2.710;2023-07-20T05:16:08;30.88;;;9.70;;
54307;SDS011;40208;39.778;2.710;2023-07-20T05:18:53;31.55;;;10.80;;
54307;SDS011;40208;39.778;2.710;2023-07-20T05:21:38;18.80;;;10.30;;
54307;SDS011;40208;39.778;2.710;2023-07-20T05:24:22;20.92;;;9.65;;
54307;SDS011;40208;39.778;2.710;2023-07-20T05:27:07;32.97;;;10.55;;
54307;SDS011;40208;39.778;2.710;2023-07-20T05:29:52;22.70;;;9.70;;
54307;SDS011;40208;39.778;2.710;2023-07-20T05:32:37;22.33;;;9.90;;
54307;SDS011;40208;39.778;2.710;2023-07-20T05:35:22;32.92;;;10.23;;
54307;SDS011;40208;39.778;2.710;2023-07-20T05:38:07;24.67;;;10.45;;
54307;SDS011;40208;39.778;2.710;2023-07-20T05:40:52;30.42;;;10.48;;
54307;SDS011;40208;39.778;2.710;2023-07-20T05:43:37;21.33;;;10.07;;
54307;SDS011;40208;39.778;2.710;2023-07-20T05:46:21;26.17;;;10.25;;
54307;SDS011;40208;39.778;2.710;2023-07-20T05:49:08;23.60;;;10.10;;
54307;SDS011;40208;39.778;2.710;2023-07-20T05:51:54;25.20;;;9.55;;
54307;SDS011;40208;39.778;2.710;2023-07-20T05:54:40;17.40;;;9.27;;
54307;SDS011;40208;39.778;2.710;2023-07-20T05:57:25;29.63;;;9.98;;
54307;SDS011;40208;39.778;2.710;2023-07-20T06:00:10;25.35;;;10.15;;
54307;SDS011;40208;39.778;2.710;2023-07-20T06:02:57;22.58;;;10.70;;
54307;SDS011;40208;39.778;2.710;2023-07-20T06:05:42;22.55;;;10.13;;
54307;SDS011;40208;39.778;2.710;2023-07-20T06:08:28;24.15;;;9.80;;
54307;SDS011;40208;39.778;2.710;2023-07-20T06:11:13;18.67;;;10.07;;
54307;SDS011;40208;39.778;2.710;2023-07-20T06:13:58;29.15;;;10.68;;
54307;SDS011;40208;39.778;2.710;2023-07-20T06:16:43;24.20;;;10.02;;
54307;SDS011;40208;39.778;2.710;2023-07-20T06:19:28;39.80;;;13.77;;
54307;SDS011;40208;39.778;2.710;2023-07-20T06:22:13;43.58;;;17.83;;
54307;SDS011;40208;39.778;2.710;2023-07-20T06:24:58;50.60;;;20.23;;
54307;SDS011;40208;39.778;2.710;2023-07-20T06:27:43;38.55;;;18.42;;
54307;SDS011;40208;39.778;2.710;2023-07-20T06:30:28;51.30;;;17.48;;
54307;SDS011;40208;39.778;2.710;2023-07-20T06:33:13;51.53;;;17.33;;
54307;SDS011;40208;39.778;2.710;2023-07-20T06:35:58;33.20;;;13.60;;
54307;SDS011;40208;39.778;2.710;2023-07-20T06:38:43;27.77;;;12.30;;
54307;SDS011;40208;39.778;2.710;2023-07-20T06:41:27;30.45;;;12.55;;
54307;SDS011;40208;39.778;2.710;2023-07-20T06:44:12;31.33;;;12.40;;
54307;SDS011;40208;39.778;2.710;2023-07-20T06:46:57;28.48;;;12.02;;
54307;SDS011;40208;39.778;2.710;2023-07-20T06:49:42;38.80;;;12.65;;
54307;SDS011;40208;39.778;2.710;2023-07-20T06:52:27;29.75;;;12.43;;
54307;SDS011;40208;39.778;2.710;2023-07-20T06:55:12;28.25;;;11.02;;
54307;SDS011;40208;39.778;2.710;2023-07-20T06:57:57;26.13;;;12.13;;
54307;SDS011;40208;39.778;2.710;2023-07-20T07:00:41;31.48;;;11.88;;
54307;SDS011;40208;39.778;2.710;2023-07-20T07:03:27;20.55;;;10.15;;
54307;SDS011;40208;39.778;2.710;2023-07-20T07:06:11;23.60;;;10.15;;
54307;SDS011;40208;39.778;2.710;2023-07-20T07:08:56;22.65;;;10.02;;
54307;SDS011;40208;39.778;2.710;2023-07-20T07:11:41;23.45;;;10.02;;
54307;SDS011;40208;39.778;2.710;2023-07-20T07:14:25;20.42;;;9.98;;
54307;SDS011;40208;39.778;2.710;2023-07-20T07:17:11;23.25;;;10.25;;
54307;SDS011;40208;39.778;2.710;2023-07-20T07:19:56;21.23;;;10.18;;
54307;SDS011;40208;39.778;2.710;2023-07-20T07:22:41;20.48;;;9.40;;
54307;SDS011;40208;39.778;2.710;2023-07-20T07:25:28;25.30;;;10.10;;
54307;SDS011;40208;39.778;2.710;2023-07-20T07:28:13;29.23;;;10.00;;
54307;SDS011;40208;39.778;2.710;2023-07-20T07:30:58;25.48;;;10.98;;
54307;SDS011;40208;39.778;2.710;2023-07-20T07:33:43;25.27;;;10.27;;
54307;SDS011;40208;39.778;2.710;2023-07-20T07:36:28;26.52;;;10.23;;
54307;SDS011;40208;39.778;2.710;2023-07-20T07:39:12;18.80;;;9.23;;
54307;SDS011;40208;39.778;2.710;2023-07-20T07:41:58;24.35;;;9.10;;
54307;SDS011;40208;39.778;2.710;2023-07-20T07:44:43;24.35;;;9.90;;
54307;SDS011;40208;39.778;2.710;2023-07-20T07:47:28;23.27;;;8.90;;
54307;SDS011;40208;39.778;2.710;2023-07-20T07:50:13;22.52;;;9.57;;
54307;SDS011;40208;39.778;2.710;2023-07-20T07:52:57;26.63;;;10.57;;
54307;SDS011;40208;39.778;2.710;2023-07-20T07:55:42;25.98;;;9.32;;
54307;SDS011;40208;39.778;2.710;2023-07-20T07:58:27;26.00;;;9.50;;
54307;SDS011;40208;39.778;2.710;2023-07-20T08:01:11;18.27;;;8.10;;
54307;SDS011;40208;39.778;2.710;2023-07-20T08:03:56;30.48;;;11.00;;
54307;SDS011;40208;39.778;2.710;2023-07-20T08:06:41;20.90;;;9.07;;
54307;SDS011;40208;39.778;2.710;2023-07-20T08:09:26;21.70;;;9.32;;
54307;SDS011;40208;39.778;2.710;2023-07-20T08:12:11;26.63;;;9.85;;
54307;SDS011;40208;39.778;2.710;2023-07-20T08:14:55;25.73;;;8.85;;
54307;SDS011;40208;39.778;2.710;2023-07-20T08:17:41;16.63;;;8.68;;
54307;SDS011;40208;39.778;2.710;2023-07-20T08:20:27;23.00;;;9.23;;
54307;SDS011;40208;39.778;2.710;2023-07-20T08:23:13;23.25;;;8.77;;
54307;SDS011;40208;39.778;2.710;2023-07-20T08:25:58;26.77;;;9.00;;
54307;SDS011;40208;39.778;2.710;2023-07-20T08:28:44;21.38;;;9.25;;
54307;SDS011;40208;39.778;2.710;2023-07-20T08:31:29;26.65;;;7.72;;
54307;SDS011;40208;39.778;2.710;2023-07-20T08:34:14;29.15;;;8.95;;
54307;SDS011;40208;39.778;2.710;2023-07-20T08:36:59;20.13;;;8.60;;
54307;SDS011;40208;39.778;2.710;2023-07-20T08:39:44;30.95;;;10.23;;
54307;SDS011;40208;39.778;2.710;2023-07-20T08:42:29;26.02;;;10.07;;
54307;SDS011;40208;39.778;2.710;2023-07-20T08:45:14;17.33;;;8.35;;
54307;SDS011;40208;39.778;2.710;2023-07-20T08:48:01;33.15;;;9.05;;
54307;SDS011;40208;39.778;2.710;2023-07-20T08:50:49;30.80;;;9.40;;
54307;SDS011;40208;39.778;2.710;2023-07-20T08:53:37;21.75;;;9.23;;
54307;SDS011;40208;39.778;2.710;2023-07-20T08:56:23;24.42;;;7.63;;
54307;SDS011;40208;39.778;2.710;2023-07-20T08:59:10;35.80;;;9.93;;
54307;SDS011;40208;39.778;2.710;2023-07-20T09:02:00;20.15;;;8.23;;
54307;SDS011;40208;39.778;2.710;2023-07-20T09:04:46;25.85;;;9.05;;
54307;SDS011;40208;39.778;2.710;2023-07-20T09:07:31;27.00;;;8.90;;
54307;SDS011;40208;39.778;2.710;2023-07-20T09:10:16;21.50;;;8.65;;
54307;SDS011;40208;39.778;2.710;2023-07-20T09:13:01;21.83;;;8.27;;
54307;SDS011;40208;39.778;2.710;2023-07-20T09:15:46;22.67;;;8.52;;
54307;SDS011;40208;39.778;2.710;2023-07-20T09:18:32;22.15;;;8.48;;
54307;SDS011;40208;39.778;2.710;2023-07-20T09:21:18;25.98;;;9.48;;
54307;SDS011;40208;39.778;2.710;2023-07-20T09:24:03;21.83;;;8.65;;
54307;SDS011;40208;39.778;2.710;2023-07-20T09:26:50;22.55;;;9.00;;
54307;SDS011;40208;39.778;2.710;2023-07-20T09:29:40;28.85;;;8.80;;
54307;SDS011;40208;39.778;2.710;2023-07-20T09:35:23;19.40;;;8.15;;
54307;SDS011;40208;39.778;2.710;2023-07-20T09:38:08;17.45;;;8.50;;
54307;SDS011;40208;39.778;2.710;2023-07-20T09:40:53;16.77;;;7.47;;
54307;SDS011;40208;39.778;2.710;2023-07-20T09:43:38;28.30;;;8.55;;
54307;SDS011;40208;39.778;2.710;2023-07-20T09:46:23;16.38;;;7.30;;
54307;SDS011;40208;39.778;2.710;2023-07-20T09:49:08;19.25;;;8.27;;
54307;SDS011;40208;39.778;2.710;2023-07-20T09:51:53;25.58;;;8.25;;
54307;SDS011;40208;39.778;2.710;2023-07-20T09:54:39;21.27;;;7.78;;
54307;SDS011;40208;39.778;2.710;2023-07-20T09:57:24;31.25;;;7.93;;
54307;SDS011;40208;39.778;2.710;2023-07-20T10:00:10;23.83;;;8.73;;
54307;SDS011;40208;39.778;2.710;2023-07-20T10:02:58;16.27;;;7.78;;
54307;SDS011;40208;39.778;2.710;2023-07-20T10:05:48;21.02;;;7.80;;
54307;SDS011;40208;39.778;2.710;2023-07-20T10:08:39;29.42;;;9.07;;
54307;SDS011;40208;39.778;2.710;2023-07-20T10:11:26;21.05;;;8.13;;
54307;SDS011;40208;39.778;2.710;2023-07-20T10:14:21;21.80;;;9.05;;
54307;SDS011;40208;39.778;2.710;2023-07-20T10:17:06;22.98;;;8.52;;
54307;SDS011;40208;39.778;2.710;2023-07-20T10:19:56;19.58;;;8.48;;
54307;SDS011;40208;39.778;2.710;2023-07-20T10:22:41;17.67;;;7.55;;
54307;SDS011;40208;39.778;2.710;2023-07-20T10:25:29;18.98;;;7.50;;
54307;SDS011;40208;39.778;2.710;2023-07-20T10:28:15;17.08;;;8.00;;
54307;SDS011;40208;39.778;2.710;2023-07-20T10:31:00;29.92;;;8.60;;
54307;SDS011;40208;39.778;2.710;2023-07-20T10:33:46;22.23;;;7.72;;
54307;SDS011;40208;39.778;2.710;2023-07-20T10:36:31;18.27;;;7.47;;
54307;SDS011;40208;39.778;2.710;2023-07-20T10:39:22;27.50;;;8.10;;
54307;SDS011;40208;39.778;2.710;2023-07-20T10:42:12;23.02;;;7.15;;
54307;SDS011;40208;39.778;2.710;2023-07-20T10:44:56;21.00;;;7.55;;
54307;SDS011;40208;39.778;2.710;2023-07-20T10:47:45;19.40;;;8.10;;
54307;SDS011;40208;39.778;2.710;2023-07-20T10:50:30;20.55;;;6.72;;
54307;SDS011;40208;39.778;2.710;2023-07-20T10:53:17;18.27;;;7.32;;
54307;SDS011;40208;39.778;2.710;2023-07-20T10:56:11;18.77;;;6.47;;
54307;SDS011;40208;39.778;2.710;2023-07-20T10:58:58;26.00;;;7.72;;
54307;SDS011;40208;39.778;2.710;2023-07-20T11:01:44;20.80;;;6.32;;
54307;SDS011;40208;39.778;2.710;2023-07-20T11:04:47;19.08;;;6.90;;
54307;SDS011;40208;39.778;2.710;2023-07-20T11:07:36;20.90;;;6.93;;
54307;SDS011;40208;39.778;2.710;2023-07-20T11:10:22;26.55;;;6.90;;
54307;SDS011;40208;39.778;2.710;2023-07-20T11:13:20;19.02;;;6.40;;
54307;SDS011;40208;39.778;2.710;2023-07-20T11:16:07;18.17;;;6.97;;
54307;SDS011;40208;39.778;2.710;2023-07-20T11:18:51;22.10;;;6.72;;
54307;SDS011;40208;39.778;2.710;2023-07-20T11:21:37;19.42;;;6.38;;
54307;SDS011;40208;39.778;2.710;2023-07-20T11:24:23;21.77;;;6.45;;
54307;SDS011;40208;39.778;2.710;2023-07-20T11:27:08;27.00;;;7.55;;
54307;SDS011;40208;39.778;2.710;2023-07-20T11:29:53;19.63;;;7.00;;
54307;SDS011;40208;39.778;2.710;2023-07-20T11:32:45;20.27;;;6.97;;
54307;SDS011;40208;39.778;2.710;2023-07-20T11:35:35;27.85;;;7.78;;
54307;SDS011;40208;39.778;2.710;2023-07-20T11:38:26;22.33;;;7.50;;
54307;SDS011;40208;39.778;2.710;2023-07-20T11:41:10;20.27;;;7.32;;
54307;SDS011;40208;39.778;2.710;2023-07-20T11:43:56;21.08;;;8.02;;
54307;SDS011;40208;39.778;2.710;2023-07-20T11:46:42;14.63;;;6.25;;
54307;SDS011;40208;39.778;2.710;2023-07-20T11:49:28;18.60;;;7.13;;
54307;SDS011;40208;39.778;2.710;2023-07-20T11:52:16;23.77;;;7.60;;
54307;SDS011;40208;39.778;2.710;2023-07-20T11:55:01;23.20;;;8.30;;
54307;SDS011;40208;39.778;2.710;2023-07-20T11:58:00;21.95;;;8.02;;
54307;SDS011;40208;39.778;2.710;2023-07-20T12:00:49;16.30;;;7.55;;
54307;SDS011;40208;39.778;2.710;2023-07-20T12:03:33;23.20;;;7.28;;
54307;SDS011;40208;39.778;2.710;2023-07-20T12:06:22;22.25;;;7.40;;
54307;SDS011;40208;39.778;2.710;2023-07-20T12:09:12;17.85;;;6.70;;
54307;SDS011;40208;39.778;2.710;2023-07-20T12:12:00;20.52;;;7.25;;
54307;SDS011;40208;39.778;2.710;2023-07-20T12:14:59;26.50;;;7.75;;
54307;SDS011;40208;39.778;2.710;2023-07-20T12:18:00;19.10;;;7.22;;
54307;SDS011;40208;39.778;2.710;2023-07-20T12:20:46;23.67;;;7.85;;
54307;SDS011;40208;39.778;2.710;2023-07-20T12:23:37;20.98;;;7.60;;
54307;SDS011;40208;39.778;2.710;2023-07-20T12:26:23;26.92;;;7.88;;
54307;SDS011;40208;39.778;2.710;2023-07-20T12:29:09;23.17;;;7.72;;
54307;SDS011;40208;39.778;2.710;2023-07-20T12:31:54;18.40;;;6.90;;
54307;SDS011;40208;39.778;2.710;2023-07-20T12:34:38;21.77;;;8.50;;
54307;SDS011;40208;39.778;2.710;2023-07-20T12:37:23;20.17;;;6.95;;
54307;SDS011;40208;39.778;2.710;2023-07-20T12:40:09;19.48;;;7.88;;
54307;SDS011;40208;39.778;2.710;2023-07-20T12:42:55;24.10;;;6.82;;
54307;SDS011;40208;39.778;2.710;2023-07-20T12:45:40;16.70;;;7.00;;
54307;SDS011;40208;39.778;2.710;2023-07-20T12:48:25;16.63;;;6.97;;
54307;SDS011;40208;39.778;2.710;2023-07-20T12:51:11;25.73;;;7.93;;
54307;SDS011;40208;39.778;2.710;2023-07-20T12:53:56;22.33;;;7.72;;
54307;SDS011;40208;39.778;2.710;2023-07-20T12:56:40;19.98;;;7.82;;
54307;SDS011;40208;39.778;2.710;2023-07-20T12:59:25;21.27;;;8.45;;
54307;SDS011;40208;39.778;2.710;2023-07-20T13:02:10;23.15;;;7.35;;
54307;SDS011;40208;39.778;2.710;2023-07-20T13:04:54;18.98;;;7.30;;
54307;SDS011;40208;39.778;2.710;2023-07-20T13:07:39;21.85;;;7.75;;
54307;SDS011;40208;39.778;2.710;2023-07-20T13:10:24;25.90;;;8.02;;
54307;SDS011;40208;39.778;2.710;2023-07-20T13:13:09;25.30;;;6.93;;
54307;SDS011;40208;39.778;2.710;2023-07-20T13:15:54;18.23;;;5.97;;
54307;SDS011;40208;39.778;2.710;2023-07-20T13:18:39;20.33;;;6.13;;
54307;SDS011;40208;39.778;2.710;2023-07-20T13:21:24;18.15;;;5.65;;
54307;SDS011;40208;39.778;2.710;2023-07-20T13:24:09;17.10;;;5.82;;
54307;SDS011;40208;39.778;2.710;2023-07-20T13:26:54;24.90;;;7.18;;
54307;SDS011;40208;39.778;2.710;2023-07-20T13:29:39;26.48;;;6.75;;
54307;SDS011;40208;39.778;2.710;2023-07-20T13:32:23;21.08;;;6.05;;
54307;SDS011;40208;39.778;2.710;2023-07-20T13:35:08;26.70;;;6.03;;
54307;SDS011;40208;39.778;2.710;2023-07-20T13:37:54;23.17;;;6.25;;
54307;SDS011;40208;39.778;2.710;2023-07-20T13:40:38;20.70;;;6.32;;
54307;SDS011;40208;39.778;2.710;2023-07-20T13:43:23;19.52;;;6.43;;
54307;SDS011;40208;39.778;2.710;2023-07-20T13:46:09;28.33;;;7.32;;
54307;SDS011;40208;39.778;2.710;2023-07-20T13:48:54;27.35;;;5.85;;
54307;SDS011;40208;39.778;2.710;2023-07-20T13:51:39;22.02;;;5.90;;
54307;SDS011;40208;39.778;2.710;2023-07-20T13:54:25;24.17;;;7.15;;
54307;SDS011;40208;39.778;2.710;2023-07-20T13:57:10;22.00;;;6.88;;
54307;SDS011;40208;39.778;2.710;2023-07-20T13:59:54;26.35;;;6.97;;
54307;SDS011;40208;39.778;2.710;2023-07-20T14:02:39;17.85;;;6.32;;
54307;SDS011;40208;39.778;2.710;2023-07-20T14:05:24;19.10;;;6.38;;
54307;SDS011;40208;39.778;2.710;2023-07-20T14:08:10;25.00;;;6.50;;
54307;SDS011;40208;39.778;2.710;2023-07-20T14:10:54;27.50;;;6.40;;
54307;SDS011;40208;39.778;2.710;2023-07-20T14:13:39;24.50;;;6.32;;
54307;SDS011;40208;39.778;2.710;2023-07-20T14:16:24;22.65;;;6.03;;
54307;SDS011;40208;39.778;2.710;2023-07-20T14:19:09;22.42;;;6.65;;
54307;SDS011;40208;39.778;2.710;2023-07-20T14:21:54;23.42;;;6.60;;
54307;SDS011;40208;39.778;2.710;2023-07-20T14:24:39;18.65;;;6.00;;
54307;SDS011;40208;39.778;2.710;2023-07-20T14:27:24;17.80;;;4.93;;
54307;SDS011;40208;39.778;2.710;2023-07-20T14:30:09;22.80;;;5.40;;
54307;SDS011;40208;39.778;2.710;2023-07-20T14:32:54;22.25;;;5.50;;
54307;SDS011;40208;39.778;2.710;2023-07-20T14:35:38;23.35;;;6.63;;
54307;SDS011;40208;39.778;2.710;2023-07-20T14:38:23;19.00;;;5.88;;
54307;SDS011;40208;39.778;2.710;2023-07-20T14:41:08;19.25;;;5.43;;
54307;SDS011;40208;39.778;2.710;2023-07-20T14:43:53;19.05;;;6.40;;
54307;SDS011;40208;39.778;2.710;2023-07-20T14:46:37;22.50;;;6.60;;
54307;SDS011;40208;39.778;2.710;2023-07-20T14:49:22;28.60;;;7.22;;
54307;SDS011;40208;39.778;2.710;2023-07-20T14:52:07;19.55;;;6.00;;
54307;SDS011;40208;39.778;2.710;2023-07-20T14:54:52;27.05;;;6.38;;
54307;SDS011;40208;39.778;2.710;2023-07-20T14:57:37;19.55;;;6.20;;
54307;SDS011;40208;39.778;2.710;2023-07-20T15:00:22;33.58;;;7.30;;
54307;SDS011;40208;39.778;2.710;2023-07-20T15:03:07;21.67;;;6.05;;
54307;SDS011;40208;39.778;2.710;2023-07-20T15:05:53;23.73;;;6.93;;
54307;SDS011;40208;39.778;2.710;2023-07-20T15:08:38;15.70;;;6.45;;
54307;SDS011;40208;39.778;2.710;2023-07-20T15:11:23;18.42;;;7.15;;
54307;SDS011;40208;39.778;2.710;2023-07-20T15:14:08;24.00;;;6.80;;
54307;SDS011;40208;39.778;2.710;2023-07-20T15:16:53;19.35;;;6.47;;
54307;SDS011;40208;39.778;2.710;2023-07-20T15:19:37;24.30;;;7.18;;
54307;SDS011;40208;39.778;2.710;2023-07-20T15:22:22;23.00;;;6.78;;
54307;SDS011;40208;39.778;2.710;2023-07-20T15:25:08;14.77;;;6.40;;
54307;SDS011;40208;39.778;2.710;2023-07-20T15:27:55;19.10;;;6.45;;
54307;SDS011;40208;39.778;2.710;2023-07-20T15:30:40;18.67;;;6.82;;
54307;SDS011;40208;39.778;2.710;2023-07-20T15:33:25;20.98;;;6.95;;
54307;SDS011;40208;39.778;2.710;2023-07-20T15:36:10;19.95;;;6.93;;
54307;SDS011;40208;39.778;2.710;2023-07-20T15:38:55;16.50;;;6.07;;
54307;SDS011;40208;39.778;2.710;2023-07-20T15:41:40;23.17;;;8.32;;
54307;SDS011;40208;39.778;2.710;2023-07-20T15:44:24;17.67;;;6.70;;
54307;SDS011;40208;39.778;2.710;2023-07-20T15:47:09;18.98;;;6.50;;
54307;SDS011;40208;39.778;2.710;2023-07-20T15:49:54;21.02;;;6.68;;
54307;SDS011;40208;39.778;2.710;2023-07-20T15:52:39;33.97;;;7.80;;
54307;SDS011;40208;39.778;2.710;2023-07-20T15:55:26;33.78;;;6.85;;
54307;SDS011;40208;39.778;2.710;2023-07-20T15:58:11;32.25;;;7.28;;
54307;SDS011;40208;39.778;2.710;2023-07-20T16:00:56;28.45;;;7.07;;
54307;SDS011;40208;39.778;2.710;2023-07-20T16:03:41;21.17;;;6.78;;
54307;SDS011;40208;39.778;2.710;2023-07-20T16:06:26;21.58;;;6.90;;
54307;SDS011;40208;39.778;2.710;2023-07-20T16:09:11;21.98;;;7.57;;
54307;SDS011;40208;39.778;2.710;2023-07-20T16:11:56;16.40;;;6.03;;
54307;SDS011;40208;39.778;2.710;2023-07-20T16:14:43;22.75;;;6.40;;
54307;SDS011;40208;39.778;2.710;2023-07-20T16:17:28;22.10;;;6.70;;
54307;SDS011;40208;39.778;2.710;2023-07-20T16:20:12;19.05;;;6.90;;
54307;SDS011;40208;39.778;2.710;2023-07-20T16:22:57;19.42;;;7.50;;
54307;SDS011;40208;39.778;2.710;2023-07-20T16:25:45;16.52;;;7.43;;
54307;SDS011;40208;39.778;2.710;2023-07-20T16:28:30;25.20;;;6.85;;
54307;SDS011;40208;39.778;2.710;2023-07-20T16:31:16;18.85;;;6.60;;
54307;SDS011;40208;39.778;2.710;2023-07-20T16:34:01;18.88;;;7.43;;
54307;SDS011;40208;39.778;2.710;2023-07-20T16:36:45;25.75;;;7.07;;